Time;durP1;ratioP1;P1;durP2;ratioP2;P2;SDS_P1;SDS_P2;PMS_P1;PMS_P2;Temp;Humidity;BMP_temperature;BMP_pressure;BME280_temperature;BME280_humidity;BME280_pressure;Samples;Min_cycle;Max_cycle;Signal;HPM_P1;HPM_P2
2022/04/26 03:37:12;;;;;;;18.37;4.35;;;;;;;;;;4409545;32;20228;-90
2022/04/26 03:39:39;;;;;;;8.55;3.08;;;;;;;;;;4406133;32;20190;-91
2022/04/26 03:42:07;;;;;;;4.60;2.65;;;;;;;;;;4406245;32;20657;-88
2022/04/26 03:44:33;;;;;;;5.97;3.37;;;;;;;;;;4392493;32;20654;-86
2022/04/26 03:46:59;;;;;;;10.10;3.83;;;;;;;;;;4405266;32;20293;-90
2022/04/26 03:49:25;;;;;;;13.53;3.70;;;;;;;;;;4406212;32;20274;-91
2022/04/26 03:51:54;;;;;;;9.07;4.03;;;;;;;;;;4406351;32;20318;-89
2022/04/26 03:54:24;;;;;;;10.40;4.65;;;;;;;;;;4406210;32;20613;-89
2022/04/26 03:56:50;;;;;;;10.40;3.65;;;;;;;;;;4405991;32;20715;-89
2022/04/26 03:59:16;;;;;;;16.85;5.00;;;;;;;;;;4405964;32;20669;-88
2022/04/26 04:01:42;;;;;;;16.77;4.20;;;;;;;;;;4406321;32;20190;-89
2022/04/26 04:04:08;;;;;;;15.57;4.32;;;;;;;;;;4404977;32;20637;-89
2022/04/26 04:06:34;;;;;;;20.50;3.90;;;;;;;;;;4406051;32;20189;-91
2022/04/26 04:09:00;;;;;;;14.27;6.05;;;;;;;;;;4405827;32;20284;-88
2022/04/26 04:11:25;;;;;;;18.05;7.55;;;;;;;;;;4405891;32;20360;-90
2022/04/26 04:13:52;;;;;;;15.15;6.68;;;;;;;;;;4405948;32;20314;-90
2022/04/26 04:16:17;;;;;;;27.60;7.15;;;;;;;;;;4405625;32;20664;-89
2022/04/26 04:21:27;;;;;;;19.83;5.93;;;;;;;;;;4405621;32;20268;-89
2022/04/26 04:23:53;;;;;;;20.50;6.30;;;;;;;;;;4405878;32;20221;-90
2022/04/26 04:26:19;;;;;;;19.23;6.60;;;;;;;;;;4405995;32;20254;-90
2022/04/26 04:28:45;;;;;;;19.20;7.40;;;;;;;;;;4405740;32;20214;-90
2022/04/26 04:31:10;;;;;;;27.75;8.10;;;;;;;;;;4406008;32;20205;-87
2022/04/26 04:33:37;;;;;;;23.67;9.80;;;;;;;;;;4406054;32;20292;-91
2022/04/26 04:36:04;;;;;;;23.12;8.57;;;;;;;;;;4405870;32;20561;-86
2022/04/26 04:38:30;;;;;;;30.42;9.40;;;;;;;;;;4405507;32;20669;-88
2022/04/26 04:40:55;;;;;;;24.50;7.72;;;;;;;;;;4406530;32;20190;-94
2022/04/26 04:43:21;;;;;;;17.85;7.50;;;;;;;;;;4408273;32;20288;-92
2022/04/26 04:45:47;;;;;;;24.55;9.65;;;;;;;;;;4405675;32;20259;-88
2022/04/26 04:48:14;;;;;;;19.05;7.03;;;;;;;;;;4407293;32;20285;-94
2022/04/26 04:50:39;;;;;;;14.60;5.90;;;;;;;;;;4405806;32;20550;-89
2022/04/26 04:53:07;;;;;;;18.45;6.35;;;;;;;;;;4406136;32;20240;-90
2022/04/26 04:55:33;;;;;;;23.90;6.12;;;;;;;;;;4407442;32;20566;-90
2022/04/26 04:57:59;;;;;;;24.92;6.05;;;;;;;;;;4408292;32;20225;-87
2022/04/26 05:00:25;;;;;;;15.80;5.40;;;;;;;;;;4408646;32;20627;-91
2022/04/26 05:02:50;;;;;;;9.63;5.47;;;;;;;;;;4408323;32;20284;-89
2022/04/26 05:05:16;;;;;;;22.95;5.62;;;;;;;;;;4408083;32;20247;-88
2022/04/26 05:07:42;;;;;;;10.88;5.30;;;;;;;;;;4407932;32;20278;-91
2022/04/26 05:10:08;;;;;;;20.90;5.25;;;;;;;;;;4407880;32;20220;-96
2022/04/26 05:12:35;;;;;;;12.27;3.90;;;;;;;;;;4410995;32;20351;-91
2022/04/26 05:15:01;;;;;;;19.42;4.80;;;;;;;;;;4411458;32;20572;-91
2022/04/26 05:17:27;;;;;;;10.82;4.65;;;;;;;;;;4412374;32;20213;-88
2022/04/26 05:19:54;;;;;;;14.32;3.78;;;;;;;;;;4410261;32;20514;-81
2022/04/26 05:22:20;;;;;;;23.42;4.28;;;;;;;;;;4410566;32;20247;-90
2022/04/26 05:24:57;;;;;;;12.18;3.70;;;;;;;;;;4411292;32;20507;-88
2022/04/26 05:27:25;;;;;;;15.13;4.00;;;;;;;;;;4412557;32;20177;-92
2022/04/26 05:29:51;;;;;;;12.70;5.15;;;;;;;;;;4412526;32;20760;-86
2022/04/26 05:32:22;;;;;;;21.30;6.55;;;;;;;;;;4410984;32;20663;-91
2022/04/26 05:34:55;;;;;;;10.73;4.72;;;;;;;;;;4407898;32;20638;-88
2022/04/26 05:37:21;;;;;;;19.15;5.57;;;;;;;;;;4407912;32;20615;-89
2022/04/26 05:39:46;;;;;;;10.65;4.10;;;;;;;;;;4407158;32;20197;-90
2022/04/26 05:42:12;;;;;;;12.63;3.75;;;;;;;;;;4406513;32;20259;-88
2022/04/26 05:44:38;;;;;;;6.47;4.30;;;;;;;;;;4405971;32;20255;-90
2022/04/26 05:47:07;;;;;;;11.12;5.03;;;;;;;;;;4407835;32;20239;-94
2022/04/26 05:49:33;;;;;;;20.05;5.07;;;;;;;;;;4407133;32;20190;-88
2022/04/26 05:51:59;;;;;;;7.78;4.15;;;;;;;;;;4410862;32;20567;-92
2022/04/26 05:54:25;;;;;;;13.40;5.20;;;;;;;;;;4409656;32;20252;-87
2022/04/26 05:56:54;;;;;;;11.52;4.32;;;;;;;;;;4407339;32;20704;-88
2022/04/26 05:59:21;;;;;;;11.20;4.47;;;;;;;;;;4406639;32;20618;-87
2022/04/26 06:01:48;;;;;;;12.13;4.28;;;;;;;;;;4406234;32;20630;-90
2022/04/26 06:04:13;;;;;;;13.65;5.10;;;;;;;;;;4407461;32;20661;-90
2022/04/26 06:06:39;;;;;;;20.35;6.70;;;;;;;;;;4408171;32;20195;-85
2022/04/26 06:09:05;;;;;;;10.00;4.60;;;;;;;;;;4407542;32;20289;-91
2022/04/26 06:11:31;;;;;;;11.12;4.12;;;;;;;;;;4408319;32;20271;-89
2022/04/26 06:13:57;;;;;;;15.18;3.53;;;;;;;;;;4409942;32;20255;-91
2022/04/26 06:16:23;;;;;;;6.50;3.00;;;;;;;;;;4407794;32;20182;-87
2022/04/26 06:18:49;;;;;;;13.15;3.05;;;;;;;;;;4409575;32;20213;-95
2022/04/26 06:21:15;;;;;;;12.70;3.42;;;;;;;;;;4409381;32;20284;-89
2022/04/26 06:23:41;;;;;;;19.12;4.47;;;;;;;;;;4407877;32;20728;-88
2022/04/26 06:26:08;;;;;;;9.40;4.25;;;;;;;;;;4408160;32;20528;-88
2022/04/26 06:28:34;;;;;;;9.65;4.00;;;;;;;;;;4405693;32;20532;-87
2022/04/26 06:31:00;;;;;;;13.57;3.40;;;;;;;;;;4407829;32;20231;-85
2022/04/26 06:33:26;;;;;;;14.70;3.55;;;;;;;;;;4409465;32;20217;-88
2022/04/26 06:35:52;;;;;;;9.52;4.60;;;;;;;;;;4407424;32;20198;-90
2022/04/26 06:38:22;;;;;;;9.02;4.43;;;;;;;;;;4410235;32;20221;-87
2022/04/26 06:40:48;;;;;;;18.12;4.30;;;;;;;;;;4408525;32;20673;-83
2022/04/26 06:43:14;;;;;;;10.70;4.18;;;;;;;;;;4395845;32;20593;-93
2022/04/26 06:45:44;;;;;;;6.65;3.58;;;;;;;;;;4409388;32;20542;-91
2022/04/26 06:48:10;;;;;;;13.35;5.03;;;;;;;;;;4406713;32;20550;-91
2022/04/26 06:50:38;;;;;;;11.48;4.60;;;;;;;;;;4405382;32;20604;-88
2022/04/26 06:53:05;;;;;;;15.35;3.90;;;;;;;;;;4406526;32;20243;-92
2022/04/26 06:55:31;;;;;;;12.13;3.95;;;;;;;;;;4407017;32;20568;-88
2022/04/26 06:57:57;;;;;;;11.73;4.62;;;;;;;;;;4409228;32;20221;-91
2022/04/26 07:00:24;;;;;;;18.45;5.20;;;;;;;;;;4406363;32;20559;-90
2022/04/26 07:02:50;;;;;;;15.20;5.78;;;;;;;;;;4405113;32;20512;-89
2022/04/26 07:05:16;;;;;;;13.57;6.12;;;;;;;;;;4404872;32;20606;-90
2022/04/26 07:07:42;;;;;;;20.27;8.35;;;;;;;;;;4406617;32;20635;-89
2022/04/26 07:10:09;;;;;;;10.65;5.45;;;;;;;;;;4407258;32;20515;-90
2022/04/26 07:12:35;;;;;;;15.80;7.50;;;;;;;;;;4407920;32;20562;-90
2022/04/26 07:15:02;;;;;;;10.13;7.22;;;;;;;;;;4407129;32;20295;-86
2022/04/26 07:17:28;;;;;;;17.58;7.90;;;;;;;;;;4406072;32;20520;-87
2022/04/26 07:19:54;;;;;;;28.58;8.23;;;;;;;;;;4406348;32;20220;-85
2022/04/26 07:22:20;;;;;;;22.83;8.48;;;;;;;;;;4406198;32;20193;-86
2022/04/26 07:24:46;;;;;;;13.00;5.70;;;;;;;;;;4407901;32;20269;-88
2022/04/26 07:27:12;;;;;;;29.67;6.47;;;;;;;;;;4406775;32;20465;-87
2022/04/26 07:29:43;;;;;;;12.23;4.95;;;;;;;;;;4405981;32;20277;-90
2022/04/26 07:32:10;;;;;;;14.32;4.75;;;;;;;;;;4406191;32;20624;-85
2022/04/26 07:34:36;;;;;;;8.93;3.65;;;;;;;;;;4405808;32;20563;-91
2022/04/26 07:37:02;;;;;;;14.20;3.97;;;;;;;;;;4404306;32;20605;-88
2022/04/26 07:39:30;;;;;;;22.00;4.07;;;;;;;;;;4405772;32;20673;-88
2022/04/26 07:41:56;;;;;;;6.82;2.33;;;;;;;;;;4405341;32;20576;-92
2022/04/26 07:44:22;;;;;;;22.42;6.75;;;;;;;;;;4406433;32;20664;-87
2022/04/26 07:46:49;;;;;;;14.48;3.83;;;;;;;;;;4406141;32;20568;-93
2022/04/26 07:49:16;;;;;;;5.57;2.47;;;;;;;;;;4407872;32;20623;-89
2022/04/26 07:51:43;;;;;;;6.37;2.20;;;;;;;;;;4405046;32;20558;-88
2022/04/26 07:54:12;;;;;;;13.60;8.00;;;;;;;;;;4406542;32;20504;-91
2022/04/26 07:56:38;;;;;;;4.35;2.10;;;;;;;;;;4405042;32;20555;-88
2022/04/26 07:59:04;;;;;;;10.75;2.20;;;;;;;;;;4405707;32;20646;-90
2022/04/26 08:01:31;;;;;;;6.68;1.08;;;;;;;;;;4392158;32;20278;-91
2022/04/26 08:03:57;;;;;;;8.10;1.33;;;;;;;;;;4406876;32;20217;-94
2022/04/26 08:06:24;;;;;;;2.50;1.35;;;;;;;;;;4408018;32;20497;-94
2022/04/26 08:08:50;;;;;;;2.65;1.05;;;;;;;;;;4408531;32;20635;-92
2022/04/26 08:11:16;;;;;;;7.00;1.77;;;;;;;;;;4409815;32;20330;-88
2022/04/26 08:13:43;;;;;;;3.78;1.23;;;;;;;;;;4410840;32;20323;-90
2022/04/26 08:16:10;;;;;;;5.20;0.90;;;;;;;;;;4410236;32;20546;-94
2022/04/26 08:18:37;;;;;;;3.90;1.80;;;;;;;;;;4405167;32;20210;-92
2022/04/26 08:21:07;;;;;;;4.45;1.25;;;;;;;;;;4406110;32;20503;-92
2022/04/26 08:27:22;;;;;;;4.07;1.27;;;;;;;;;;4405885;32;20610;-93
2022/04/26 08:29:05;;;;;;;9.32;1.25;;;;;;;;;;4408584;32;20300;-91
2022/04/26 08:31:31;;;;;;;9.77;1.00;;;;;;;;;;4410699;32;20212;-93
2022/04/26 08:33:56;;;;;;;3.40;1.15;;;;;;;;;;4412106;32;20321;-90
2022/04/26 08:36:24;;;;;;;13.52;4.03;;;;;;;;;;4409898;32;20292;-94
2022/04/26 08:38:49;;;;;;;5.75;1.52;;;;;;;;;;4412791;32;20646;-89
2022/04/26 08:41:15;;;;;;;8.55;1.45;;;;;;;;;;4418798;32;20265;-91
2022/04/26 08:43:41;;;;;;;9.30;2.12;;;;;;;;;;4418432;32;20300;-90
2022/04/26 08:46:07;;;;;;;11.48;1.65;;;;;;;;;;4419760;32;20217;-91
2022/04/26 08:51:17;;;;;;;2.87;1.30;;;;;;;;;;4438534;26;20345;-53
2022/04/26 08:53:44;;;;;;;6.60;1.42;;;;;;;;;;4432536;32;20288;-53
2022/04/26 08:56:10;;;;;;;2.85;1.30;;;;;;;;;;4423851;32;20233;-54
2022/04/26 08:58:36;;;;;;;6.75;1.87;;;;;;;;;;4425246;32;20310;-53
2022/04/26 09:01:09;;;;;;;2.25;1.20;;;;;;;;;;4433791;32;20302;-53
2022/04/26 09:04:01;;;;;;;5.20;1.83;;;;;;;;;;4429164;32;20247;-53
2022/04/26 09:06:43;;;;;;;7.10;1.83;;;;;;;;;;4431613;32;20248;-54
2022/04/26 09:09:18;;;;;;;9.38;1.37;;;;;;;;;;4433219;32;20281;-53
2022/04/26 09:11:45;;;;;;;4.85;1.58;;;;;;;;;;4419024;32;20252;-53
2022/04/26 09:14:34;;;;;;;4.82;1.30;;;;;;;;;;4426099;32;20678;-54
2022/04/26 09:17:11;;;;;;;9.05;1.48;;;;;;;;;;4418240;32;20253;-53
2022/04/26 09:19:55;;;;;;;6.20;1.48;;;;;;;;;;4418953;32;20330;-54
2022/04/26 09:22:22;;;;;;;2.33;1.35;;;;;;;;;;4420926;32;20215;-53
2022/04/26 09:25:08;;;;;;;12.00;1.83;;;;;;;;;;4430325;32;20239;-53
2022/04/26 09:27:37;;;;;;;4.30;1.30;;;;;;;;;;4418255;32;20590;-53
2022/04/26 09:30:13;;;;;;;3.90;1.48;;;;;;;;;;4432089;32;20269;-53
2022/04/26 09:32:48;;;;;;;10.20;1.33;;;;;;;;;;4435829;32;20221;-54
2022/04/26 09:35:21;;;;;;;4.62;1.42;;;;;;;;;;4418612;32;20259;-53
2022/04/26 09:37:47;;;;;;;6.05;1.40;;;;;;;;;;4427958;32;20303;-53
2022/04/26 09:40:12;;;;;;;3.47;1.12;;;;;;;;;;4406416;32;20221;-56
2022/04/26 09:42:38;;;;;;;2.62;1.27;;;;;;;;;;4418929;32;20303;-54
2022/04/26 09:45:06;;;;;;;4.00;1.35;;;;;;;;;;4416905;32;20338;-53
2022/04/26 09:47:53;;;;;;;4.22;1.30;;;;;;;;;;4417068;32;20584;-53
2022/04/26 09:50:19;;;;;;;4.40;1.08;;;;;;;;;;4420352;32;20216;-54
2022/04/26 09:52:44;;;;;;;7.80;1.20;;;;;;;;;;4418459;32;20413;-54
2022/04/26 09:55:11;;;;;;;5.03;1.55;;;;;;;;;;4433520;32;20310;-54
2022/04/26 09:57:38;;;;;;;2.92;1.00;;;;;;;;;;4431292;32;20282;-53
2022/04/26 10:00:09;;;;;;;2.22;1.15;;;;;;;;;;4432303;32;20201;-53
2022/04/26 10:02:36;;;;;;;2.62;1.27;;;;;;;;;;4427636;32;20299;-54
2022/04/26 10:05:05;;;;;;;2.97;1.40;;;;;;;;;;4433016;32;20426;-53
2022/04/26 10:07:35;;;;;;;5.55;1.70;;;;;;;;;;4432129;32;20311;-53
2022/04/26 10:10:02;;;;;;;5.03;1.25;;;;;;;;;;4420584;32;20601;-54
2022/04/26 10:12:29;;;;;;;10.15;1.33;;;;;;;;;;4417993;32;20319;-54
2022/04/26 10:14:55;;;;;;;4.22;1.45;;;;;;;;;;4435981;32;20213;-54
2022/04/26 10:17:20;;;;;;;3.08;1.35;;;;;;;;;;4410107;32;20240;-54
2022/04/26 10:19:47;;;;;;;4.45;1.55;;;;;;;;;;4431286;32;20197;-54
2022/04/26 10:22:15;;;;;;;3.42;1.05;;;;;;;;;;4430999;32;20391;-54
2022/04/26 10:25:00;;;;;;;4.12;1.17;;;;;;;;;;4436050;32;20239;-54
2022/04/26 10:27:26;;;;;;;1.27;0.90;;;;;;;;;;4432729;32;20251;-54
2022/04/26 10:29:52;;;;;;;6.05;1.20;;;;;;;;;;4431338;32;20280;-54
2022/04/26 10:32:38;;;;;;;2.95;1.23;;;;;;;;;;4425543;32;20311;-54
2022/04/26 10:35:26;;;;;;;3.00;1.33;;;;;;;;;;4432376;32;20205;-54
2022/04/26 10:38:12;;;;;;;2.53;0.98;;;;;;;;;;4421790;32;20623;-55
2022/04/26 10:41:05;;;;;;;7.03;1.30;;;;;;;;;;4417375;32;20256;-54
2022/04/26 10:43:31;;;;;;;1.90;1.05;;;;;;;;;;4422662;32;20280;-54
2022/04/26 10:46:15;;;;;;;3.72;1.48;;;;;;;;;;4432699;32;20213;-54
2022/04/26 10:48:41;;;;;;;2.97;1.52;;;;;;;;;;4435323;32;20231;-53
2022/04/26 10:51:35;;;;;;;4.47;1.70;;;;;;;;;;4424671;32;20213;-54
2022/04/26 10:54:02;;;;;;;3.47;1.15;;;;;;;;;;4427423;32;20302;-53
2022/04/26 10:56:28;;;;;;;6.45;1.50;;;;;;;;;;4418329;32;20209;-54
2022/04/26 10:58:54;;;;;;;7.50;1.35;;;;;;;;;;4425171;32;20220;-54
2022/04/26 11:01:23;;;;;;;3.83;1.23;;;;;;;;;;4428856;32;20240;-53
2022/04/26 11:03:53;;;;;;;1.80;1.00;;;;;;;;;;4432104;32;20247;-53
2022/04/26 11:06:37;;;;;;;8.18;2.15;;;;;;;;;;4431905;32;20333;-54
2022/04/26 11:09:09;;;;;;;4.70;1.40;;;;;;;;;;4432279;32;20265;-54
2022/04/26 11:11:55;;;;;;;4.28;1.35;;;;;;;;;;4431528;32;20240;-54
2022/04/26 11:14:21;;;;;;;1.17;1.00;;;;;;;;;;4429898;32;20255;-54
2022/04/26 11:17:00;;;;;;;4.70;1.33;;;;;;;;;;4427955;32;20568;-54
2022/04/26 11:19:36;;;;;;;5.85;1.20;;;;;;;;;;4417822;32;20349;-53
2022/04/26 11:22:05;;;;;;;2.20;0.85;;;;;;;;;;4421898;32;20240;-53
2022/04/26 11:30:05;;;;;;;4.82;0.90;;;;;;;;;;4414517;32;20400;-54
2022/04/26 11:32:31;;;;;;;5.07;1.05;;;;;;;;;;4418306;32;20332;-54
2022/04/26 11:34:57;;;;;;;4.57;1.30;;;;;;;;;;4423653;32;20217;-53
2022/04/26 11:37:23;;;;;;;3.20;0.80;;;;;;;;;;4401672;32;20616;-54
2022/04/26 11:39:49;;;;;;;3.22;1.00;;;;;;;;;;4416800;32;20288;-55
2022/04/26 11:42:16;;;;;;;5.07;0.98;;;;;;;;;;4413488;32;20651;-53
2022/04/26 11:45:01;;;;;;;10.13;1.50;;;;;;;;;;4414525;32;20240;-53
2022/04/26 11:47:50;;;;;;;1.58;0.90;;;;;;;;;;4413951;32;20329;-54
2022/04/26 11:50:18;;;;;;;1.00;0.90;;;;;;;;;;4414799;32;20321;-54
2022/04/26 11:52:45;;;;;;;1.58;0.80;;;;;;;;;;4415202;32;20835;-54
2022/04/26 11:55:37;;;;;;;6.90;1.50;;;;;;;;;;4417295;32;20292;-54
2022/04/26 11:58:08;;;;;;;8.55;1.10;;;;;;;;;;4418868;32;20295;-54
2022/04/26 12:00:34;;;;;;;2.28;0.90;;;;;;;;;;4422645;32;20224;-54
2022/04/26 12:03:02;;;;;;;2.22;0.88;;;;;;;;;;4424784;32;20310;-54
2022/04/26 12:05:28;;;;;;;7.50;1.30;;;;;;;;;;4427421;32;20754;-54
2022/04/26 12:07:55;;;;;;;4.82;1.42;;;;;;;;;;4430423;32;20316;-53
2022/04/26 12:10:31;;;;;;;3.97;1.02;;;;;;;;;;4430539;32;20567;-53
2022/04/26 12:13:05;;;;;;;2.33;1.10;;;;;;;;;;4431963;32;20300;-54
2022/04/26 12:15:33;;;;;;;3.00;1.25;;;;;;;;;;4420361;32;20283;-53
2022/04/26 12:18:13;;;;;;;3.45;1.05;;;;;;;;;;4419910;32;20362;-53
2022/04/26 12:21:14;;;;;;;3.50;1.10;;;;;;;;;;4430764;32;20274;-53
2022/04/26 12:23:39;;;;;;;2.03;0.80;;;;;;;;;;4353290;33;20250;-53
2022/04/26 12:26:09;;;;;;;1.17;0.60;;;;;;;;;;4406075;32;20392;-53
2022/04/26 12:28:48;;;;;;;5.90;1.73;;;;;;;;;;4421282;32;20247;-53
2022/04/26 12:31:21;;;;;;;9.90;1.55;;;;;;;;;;4424982;32;20270;-53
2022/04/26 12:33:51;;;;;;;2.97;1.10;;;;;;;;;;4424486;32;20248;-53
2022/04/26 12:36:17;;;;;;;3.30;1.12;;;;;;;;;;4418519;32;20311;-53
2022/04/26 12:38:50;;;;;;;12.02;1.10;;;;;;;;;;4421803;32;20736;-53
2022/04/26 12:41:15;;;;;;;8.30;0.90;;;;;;;;;;4419687;32;20367;-53
2022/04/26 12:43:43;;;;;;;6.78;1.67;;;;;;;;;;4427262;32;21097;-53
2022/04/26 12:46:08;;;;;;;5.57;1.02;;;;;;;;;;4428378;32;20220;-53
2022/04/26 12:51:27;;;;;;;1.55;0.80;;;;;;;;;;4414582;32;20630;-54
2022/04/26 12:53:54;;;;;;;2.92;1.02;;;;;;;;;;4398389;32;20277;-53
2022/04/26 12:56:20;;;;;;;2.45;1.27;;;;;;;;;;4423423;32;20311;-53
2022/04/26 12:58:50;;;;;;;6.30;0.95;;;;;;;;;;4430365;32;20707;-53
2022/04/26 13:01:17;;;;;;;6.72;1.15;;;;;;;;;;4423528;32;20414;-53
2022/04/26 13:03:45;;;;;;;3.60;1.10;;;;;;;;;;4420625;32;20747;-55
2022/04/26 13:06:18;;;;;;;5.28;1.35;;;;;;;;;;4425061;32;20248;-54
2022/04/26 13:08:47;;;;;;;6.05;1.60;;;;;;;;;;4422979;32;20365;-54
2022/04/26 13:11:14;;;;;;;4.03;1.00;;;;;;;;;;4428062;32;20312;-53
2022/04/26 13:13:40;;;;;;;3.45;1.40;;;;;;;;;;4421296;32;20240;-54
2022/04/26 13:16:06;;;;;;;3.17;1.00;;;;;;;;;;4425120;32;20753;-54
2022/04/26 13:18:32;;;;;;;7.22;0.88;;;;;;;;;;4433637;32;20691;-53
2022/04/26 13:20:58;;;;;;;2.75;1.17;;;;;;;;;;4432674;32;20289;-52
2022/04/26 13:23:25;;;;;;;1.92;0.88;;;;;;;;;;4418820;32;20631;-51
2022/04/26 13:25:51;;;;;;;4.40;0.75;;;;;;;;;;4432899;32;20667;-52
2022/04/26 13:28:17;;;;;;;7.78;1.45;;;;;;;;;;4429593;32;20321;-53
2022/04/26 13:30:43;;;;;;;2.03;1.10;;;;;;;;;;4427850;32;20600;-52
2022/04/26 13:33:09;;;;;;;10.25;1.40;;;;;;;;;;4425689;32;20276;-53
2022/04/26 13:35:37;;;;;;;3.08;0.85;;;;;;;;;;4428532;32;20618;-53
2022/04/26 13:38:10;;;;;;;5.35;1.45;;;;;;;;;;4423617;32;20205;-52
2022/04/26 13:40:37;;;;;;;2.70;1.00;;;;;;;;;;4427684;32;20672;-53
2022/04/26 13:43:04;;;;;;;3.35;1.15;;;;;;;;;;4433557;32;20266;-53
2022/04/26 13:45:29;;;;;;;5.37;1.80;;;;;;;;;;4432598;32;20232;-52
2022/04/26 13:47:55;;;;;;;6.15;1.30;;;;;;;;;;4431819;32;20352;-53
2022/04/26 13:50:20;;;;;;;6.87;1.95;;;;;;;;;;4418750;32;20259;-52
2022/04/26 13:52:46;;;;;;;2.92;1.35;;;;;;;;;;4432796;32;20255;-52
2022/04/26 13:55:15;;;;;;;4.00;1.55;;;;;;;;;;4432051;32;20248;-52
2022/04/26 13:57:43;;;;;;;12.18;1.37;;;;;;;;;;4422660;32;20221;-53
2022/04/26 14:00:11;;;;;;;6.30;1.23;;;;;;;;;;4415995;32;20241;-53
2022/04/26 14:02:37;;;;;;;7.68;1.00;;;;;;;;;;4410088;32;20414;-53
2022/04/26 14:05:04;;;;;;;2.47;1.02;;;;;;;;;;4413776;32;20296;-53
2022/04/26 14:07:30;;;;;;;6.22;1.40;;;;;;;;;;4428946;32;20731;-54
2022/04/26 14:09:55;;;;;;;3.05;1.25;;;;;;;;;;4423554;32;20426;-52
2022/04/26 14:12:21;;;;;;;6.55;1.67;;;;;;;;;;4418085;32;20243;-53
2022/04/26 14:22:59;;;;;;;0.75;0.70;;;;;;;;;;4430985;32;20646;-52
2022/04/26 14:25:24;;;;;;;4.20;1.00;;;;;;;;;;4429262;32;20363;-52
2022/04/26 14:28:24;;;;;;;2.00;0.93;;;;;;;;;;4476502;31;20402;-52
2022/04/26 14:30:50;;;;;;;2.05;1.00;;;;;;;;;;4454587;32;20639;-52
2022/04/26 14:33:15;;;;;;;2.35;0.88;;;;;;;;;;4456391;32;20246;-53
2022/04/26 14:35:41;;;;;;;8.75;2.22;;;;;;;;;;4452051;32;20311;-53
2022/04/26 14:38:10;;;;;;;2.95;1.42;;;;;;;;;;4452859;32;20231;-52
2022/04/26 14:40:35;;;;;;;10.57;1.20;;;;;;;;;;4457502;32;20250;-56
2022/04/26 14:43:01;;;;;;;6.10;1.42;;;;;;;;;;4453375;32;20220;-53
2022/04/26 14:45:32;;;;;;;3.65;1.10;;;;;;;;;;4459321;32;20627;-53
2022/04/26 14:47:58;;;;;;;8.55;1.02;;;;;;;;;;4459609;32;20240;-53
2022/04/26 14:50:23;;;;;;;4.87;1.27;;;;;;;;;;4458427;32;21048;-53
2022/04/26 14:52:49;;;;;;;8.02;1.20;;;;;;;;;;4459043;32;20303;-53
2022/04/26 14:55:14;;;;;;;6.12;1.20;;;;;;;;;;4456339;32;20658;-52
2022/04/26 14:57:40;;;;;;;4.05;1.70;;;;;;;;;;4444599;32;20248;-52
2022/04/26 15:00:08;;;;;;;3.47;1.85;;;;;;;;;;4455861;32;20323;-52
2022/04/26 15:02:38;;;;;;;6.07;1.10;;;;;;;;;;4452216;32;20252;-52
2022/04/26 15:05:08;;;;;;;4.28;1.10;;;;;;;;;;4444738;32;20205;-53
2022/04/26 15:10:19;;;;;;;2.20;1.10;;;;;;;;;;4459174;32;20264;-53
2022/04/26 15:18:13;;;;;;;1.52;1.00;;;;;;;;;;4447702;32;20280;-54
2022/04/26 15:20:41;;;;;;;3.72;1.35;;;;;;;;;;4459451;32;20287;-53
2022/04/26 15:23:06;;;;;;;3.37;1.48;;;;;;;;;;4459129;32;20681;-53
2022/04/26 15:25:32;;;;;;;1.73;0.85;;;;;;;;;;4459345;32;20288;-53
2022/04/26 15:27:57;;;;;;;10.25;1.40;;;;;;;;;;4457915;32;20528;-53
2022/04/26 15:30:23;;;;;;;0.70;0.70;;;;;;;;;;4458638;32;20189;-54
2022/04/26 15:32:48;;;;;;;7.95;1.12;;;;;;;;;;4458419;32;20298;-53
2022/04/26 15:35:14;;;;;;;8.13;1.48;;;;;;;;;;4458258;32;20208;-53
2022/04/26 15:37:39;;;;;;;1.95;1.00;;;;;;;;;;4455954;32;20252;-53
2022/04/26 15:40:05;;;;;;;1.60;0.90;;;;;;;;;;4447217;32;20423;-52
2022/04/26 15:42:32;;;;;;;8.40;1.40;;;;;;;;;;4444739;32;20731;-52
2022/04/26 15:44:59;;;;;;;9.68;3.37;;;;;;;;;;4451490;32;20295;-55
2022/04/26 15:47:24;;;;;;;3.72;1.42;;;;;;;;;;4447826;32;20521;-53
2022/04/26 15:49:50;;;;;;;7.80;1.73;;;;;;;;;;4447697;32;20290;-53
2022/04/26 15:52:15;;;;;;;9.80;1.42;;;;;;;;;;4447996;32;20242;-53
2022/04/26 15:54:43;;;;;;;10.68;1.20;;;;;;;;;;4448318;32;20664;-53
2022/04/26 15:57:10;;;;;;;9.90;1.17;;;;;;;;;;4448211;32;20849;-53
2022/04/26 15:59:35;;;;;;;1.98;1.12;;;;;;;;;;4446866;32;20575;-53
2022/04/26 16:02:01;;;;;;;2.97;0.98;;;;;;;;;;4447840;32;20228;-53
2022/04/26 16:04:26;;;;;;;2.72;1.10;;;;;;;;;;4448153;32;20300;-53
2022/04/26 16:06:52;;;;;;;5.40;1.45;;;;;;;;;;4447632;32;20565;-54
2022/04/26 16:20:30;;;;;;;2.33;1.42;;;;;;;;;;4444725;32;20263;-53
2022/04/26 16:22:59;;;;;;;2.92;1.33;;;;;;;;;;4444826;32;20300;-54
2022/04/26 16:25:26;;;;;;;7.07;1.42;;;;;;;;;;4445046;32;20216;-53
2022/04/26 16:27:51;;;;;;;4.07;1.33;;;;;;;;;;4445581;32;20240;-53
2022/04/26 16:30:17;;;;;;;3.60;1.05;;;;;;;;;;4443314;32;20338;-54
2022/04/26 16:32:43;;;;;;;4.37;1.45;;;;;;;;;;4444464;32;20229;-53
2022/04/26 16:35:10;;;;;;;1.05;0.95;;;;;;;;;;4446483;32;20334;-53
2022/04/26 16:37:37;;;;;;;3.12;1.30;;;;;;;;;;4443847;32;20299;-53
2022/04/26 16:40:03;;;;;;;3.17;1.37;;;;;;;;;;4432715;32;20251;-53
2022/04/26 16:42:30;;;;;;;3.45;0.88;;;;;;;;;;4447975;32;20284;-53
2022/04/26 16:44:56;;;;;;;4.43;1.62;;;;;;;;;;4462238;32;20315;-54
2022/04/26 16:47:21;;;;;;;4.82;1.40;;;;;;;;;;4448203;32;20259;-52
2022/04/26 16:49:47;;;;;;;2.28;1.52;;;;;;;;;;4448051;32;20236;-53
2022/04/26 16:52:12;;;;;;;3.45;1.37;;;;;;;;;;4447364;32;20243;-53
2022/04/26 16:54:38;;;;;;;4.97;1.50;;;;;;;;;;4433811;32;20337;-53
2022/04/26 16:57:04;;;;;;;9.10;1.40;;;;;;;;;;4445496;32;20208;-53
2022/04/26 16:59:30;;;;;;;2.78;1.10;;;;;;;;;;4447047;32;20316;-53
2022/04/26 17:01:56;;;;;;;2.55;1.37;;;;;;;;;;4444459;32;20659;-53
2022/04/26 17:04:22;;;;;;;3.33;1.55;;;;;;;;;;4439618;32;20324;-53
2022/04/26 17:06:48;;;;;;;12.43;2.12;;;;;;;;;;4443403;32;20216;-53
2022/04/26 17:09:14;;;;;;;3.15;1.27;;;;;;;;;;4447926;32;20477;-53
2022/04/26 17:11:45;;;;;;;4.57;1.30;;;;;;;;;;4443387;32;20232;-53
2022/04/26 17:14:15;;;;;;;4.35;1.87;;;;;;;;;;4446568;32;20235;-53
2022/04/26 17:16:44;;;;;;;1.90;1.27;;;;;;;;;;4443983;32;20216;-53
2022/04/26 17:19:09;;;;;;;1.40;0.85;;;;;;;;;;4463347;32;20213;-53
2022/04/26 17:21:35;;;;;;;4.68;1.27;;;;;;;;;;4441357;32;20595;-53
2022/04/26 17:24:01;;;;;;;2.03;1.30;;;;;;;;;;4432378;32;20522;-55
2022/04/26 17:26:27;;;;;;;2.83;1.17;;;;;;;;;;4440677;32;20212;-53
2022/04/26 17:28:52;;;;;;;1.37;0.90;;;;;;;;;;4447792;32;20259;-53
2022/04/26 17:31:17;;;;;;;1.58;1.02;;;;;;;;;;4446427;32;20322;-53
2022/04/26 17:33:44;;;;;;;3.55;1.08;;;;;;;;;;4444156;32;20370;-52
2022/04/26 17:36:12;;;;;;;3.47;0.95;;;;;;;;;;4439621;32;20346;-54
2022/04/26 17:38:37;;;;;;;1.12;0.98;;;;;;;;;;4441488;32;20224;-53
2022/04/26 17:41:04;;;;;;;1.37;0.82;;;;;;;;;;4446622;32;20832;-53
2022/04/26 17:43:30;;;;;;;4.07;2.80;;;;;;;;;;4446430;32;20232;-53
2022/04/26 17:45:56;;;;;;;2.60;1.23;;;;;;;;;;4446625;32;20383;-54
2022/04/26 17:48:21;;;;;;;1.70;1.20;;;;;;;;;;4446978;32;20229;-54
2022/04/26 17:50:48;;;;;;;2.55;1.70;;;;;;;;;;4437533;32;20284;-53
2022/04/26 17:58:43;;;;;;;12.57;3.03;;;;;;;;;;4446396;32;20350;-53
2022/04/26 18:01:08;;;;;;;6.93;2.12;;;;;;;;;;4441649;32;20224;-53
2022/04/26 18:03:35;;;;;;;4.93;1.55;;;;;;;;;;4436263;32;20733;-54
2022/04/26 18:06:00;;;;;;;2.58;1.83;;;;;;;;;;4437425;32;20364;-53
2022/04/26 18:08:26;;;;;;;3.70;2.15;;;;;;;;;;4446805;32;20586;-54
2022/04/26 18:10:52;;;;;;;4.07;1.58;;;;;;;;;;4446891;32;20280;-53
2022/04/26 18:13:18;;;;;;;13.35;1.50;;;;;;;;;;4450556;32;20320;-53
2022/04/26 18:15:43;;;;;;;7.37;2.33;;;;;;;;;;4450231;32;20283;-56
2022/04/26 18:18:09;;;;;;;3.78;2.08;;;;;;;;;;4444979;32;20279;-54
2022/04/26 18:20:35;;;;;;;9.98;2.42;;;;;;;;;;4445819;32;20359;-55
2022/04/26 18:23:00;;;;;;;6.62;1.77;;;;;;;;;;4446315;32;20224;-53
2022/04/26 18:28:12;;;;;;;8.73;3.40;;;;;;;;;;4444903;32;20258;-54
2022/04/26 18:30:38;;;;;;;5.53;2.85;;;;;;;;;;4443630;32;20315;-55
2022/04/26 18:33:03;;;;;;;5.55;2.40;;;;;;;;;;4443891;32;20331;-53
2022/04/26 18:35:29;;;;;;;11.93;2.50;;;;;;;;;;4440515;32;20625;-54
2022/04/26 18:37:55;;;;;;;7.57;2.28;;;;;;;;;;4443401;32;20216;-55
2022/04/26 18:40:20;;;;;;;4.32;2.00;;;;;;;;;;4444389;32;20221;-53
2022/04/26 18:42:47;;;;;;;13.62;2.47;;;;;;;;;;4445535;32;20204;-54
2022/04/26 18:45:13;;;;;;;12.13;2.30;;;;;;;;;;4443399;32;20254;-54
2022/04/26 18:47:39;;;;;;;7.93;2.85;;;;;;;;;;4436373;32;20239;-53
2022/04/26 18:50:05;;;;;;;6.65;2.42;;;;;;;;;;4431383;32;20229;-54
2022/04/26 18:52:31;;;;;;;3.55;2.22;;;;;;;;;;4446330;32;20204;-53
2022/04/26 18:54:56;;;;;;;4.72;2.30;;;;;;;;;;4446371;32;20820;-53
2022/04/26 18:57:23;;;;;;;3.62;2.45;;;;;;;;;;4445931;32;20232;-54
2022/04/26 18:59:49;;;;;;;3.22;1.90;;;;;;;;;;4447180;32;20705;-54
2022/04/26 19:02:14;;;;;;;3.70;2.08;;;;;;;;;;4433625;32;20259;-55
2022/04/26 19:04:40;;;;;;;2.83;2.25;;;;;;;;;;4434361;32;20228;-54
2022/04/26 19:07:05;;;;;;;3.90;2.12;;;;;;;;;;4443617;32;20647;-54
2022/04/26 19:09:31;;;;;;;6.72;1.85;;;;;;;;;;4434381;32;20492;-53
2022/04/26 19:14:40;;;;;;;8.60;2.10;;;;;;;;;;4438104;32;20690;-54